sensor_id;sensor_type;location;lat;lon;timestamp;temperature;humidity
1546;DHT22;766;51.502;9.752;2022-11-23T00:00:31;6.00;99.90
1546;DHT22;766;51.502;9.752;2022-11-23T00:03:00;6.00;99.90
1546;DHT22;766;51.502;9.752;2022-11-23T00:05:30;5.90;99.90
1546;DHT22;766;51.502;9.752;2022-11-23T00:08:00;6.00;99.90
1546;DHT22;766;51.502;9.752;2022-11-23T00:10:29;6.00;99.90
1546;DHT22;766;51.502;9.752;2022-11-23T00:12:58;6.10;99.90
1546;DHT22;766;51.502;9.752;2022-11-23T00:15:27;6.00;99.90
1546;DHT22;766;51.502;9.752;2022-11-23T00:17:57;6.00;99.90
1546;DHT22;766;51.502;9.752;2022-11-23T00:20:29;6.10;99.90
1546;DHT22;766;51.502;9.752;2022-11-23T00:22:58;6.10;99.90
1546;DHT22;766;51.502;9.752;2022-11-23T00:25:27;6.10;99.90
1546;DHT22;766;51.502;9.752;2022-11-23T00:27:56;6.00;99.90
1546;DHT22;766;51.502;9.752;2022-11-23T00:30:25;6.00;99.90
1546;DHT22;766;51.502;9.752;2022-11-23T00:32:56;5.90;99.90
1546;DHT22;766;51.502;9.752;2022-11-23T00:35:26;5.80;99.90
1546;DHT22;766;51.502;9.752;2022-11-23T00:37:56;5.80;99.90
1546;DHT22;766;51.502;9.752;2022-11-23T00:40:25;5.80;99.90
1546;DHT22;766;51.502;9.752;2022-11-23T00:42:54;5.70;99.90
1546;DHT22;766;51.502;9.752;2022-11-23T00:45:22;5.70;99.90
1546;DHT22;766;51.502;9.752;2022-11-23T00:47:52;5.70;99.90
1546;DHT22;766;51.502;9.752;2022-11-23T00:50:21;5.60;99.90
1546;DHT22;766;51.502;9.752;2022-11-23T00:52:50;5.60;99.90
1546;DHT22;766;51.502;9.752;2022-11-23T00:55:19;5.60;99.90
1546;DHT22;766;51.502;9.752;2022-11-23T00:57:48;5.60;99.90
1546;DHT22;766;51.502;9.752;2022-11-23T01:00:17;5.70;99.90
1546;DHT22;766;51.502;9.752;2022-11-23T01:02:45;5.80;99.90
1546;DHT22;766;51.502;9.752;2022-11-23T01:05:15;5.80;99.90
1546;DHT22;766;51.502;9.752;2022-11-23T01:07:44;5.80;99.90
1546;DHT22;766;51.502;9.752;2022-11-23T01:10:16;5.80;99.90
1546;DHT22;766;51.502;9.752;2022-11-23T01:12:45;5.80;99.90
1546;DHT22;766;51.502;9.752;2022-11-23T01:15:15;5.70;99.90
1546;DHT22;766;51.502;9.752;2022-11-23T01:17:43;5.80;99.90
1546;DHT22;766;51.502;9.752;2022-11-23T01:20:12;5.70;99.90
1546;DHT22;766;51.502;9.752;2022-11-23T01:22:41;5.70;99.90
1546;DHT22;766;51.502;9.752;2022-11-23T01:25:09;5.60;99.90
1546;DHT22;766;51.502;9.752;2022-11-23T01:27:40;5.60;99.90
1546;DHT22;766;51.502;9.752;2022-11-23T01:30:13;5.50;99.90
1546;DHT22;766;51.502;9.752;2022-11-23T01:32:43;5.60;99.90
1546;DHT22;766;51.502;9.752;2022-11-23T01:35:11;5.70;99.90
1546;DHT22;766;51.502;9.752;2022-11-23T01:37:40;5.60;99.90
1546;DHT22;766;51.502;9.752;2022-11-23T01:40:10;5.60;99.90
1546;DHT22;766;51.502;9.752;2022-11-23T01:42:50;5.50;99.90
1546;DHT22;766;51.502;9.752;2022-11-23T01:45:37;5.50;99.90
1546;DHT22;766;51.502;9.752;2022-11-23T01:48:10;5.50;99.90
1546;DHT22;766;51.502;9.752;2022-11-23T01:50:41;5.50;99.90
1546;DHT22;766;51.502;9.752;2022-11-23T01:53:10;5.50;99.90
1546;DHT22;766;51.502;9.752;2022-11-23T01:55:42;5.60;99.90
1546;DHT22;766;51.502;9.752;2022-11-23T01:58:12;5.60;99.90
1546;DHT22;766;51.502;9.752;2022-11-23T02:00:44;5.60;99.90
1546;DHT22;766;51.502;9.752;2022-11-23T02:03:14;5.60;99.90
1546;DHT22;766;51.502;9.752;2022-11-23T02:05:45;5.60;99.90
1546;DHT22;766;51.502;9.752;2022-11-23T02:08:15;5.50;99.90
1546;DHT22;766;51.502;9.752;2022-11-23T02:10:46;5.50;99.90
1546;DHT22;766;51.502;9.752;2022-11-23T02:13:14;5.60;99.90
1546;DHT22;766;51.502;9.752;2022-11-23T02:15:44;5.60;99.90
1546;DHT22;766;51.502;9.752;2022-11-23T02:18:15;5.50;99.90
1546;DHT22;766;51.502;9.752;2022-11-23T02:20:44;5.50;99.90
1546;DHT22;766;51.502;9.752;2022-11-23T02:23:21;5.50;99.90
1546;DHT22;766;51.502;9.752;2022-11-23T02:25:57;5.50;99.90
1546;DHT22;766;51.502;9.752;2022-11-23T02:28:28;5.50;99.90
1546;DHT22;766;51.502;9.752;2022-11-23T02:30:58;5.50;99.90
1546;DHT22;766;51.502;9.752;2022-11-23T02:33:28;5.60;99.90
1546;DHT22;766;51.502;9.752;2022-11-23T02:36:24;5.60;99.90
1546;DHT22;766;51.502;9.752;2022-11-23T02:38:58;5.60;99.90
1546;DHT22;766;51.502;9.752;2022-11-23T02:41:35;5.60;99.90
1546;DHT22;766;51.502;9.752;2022-11-23T02:44:11;5.70;99.90
1546;DHT22;766;51.502;9.752;2022-11-23T02:46:41;5.60;99.90
1546;DHT22;766;51.502;9.752;2022-11-23T02:49:09;5.60;99.90
1546;DHT22;766;51.502;9.752;2022-11-23T02:51:38;5.60;99.90
1546;DHT22;766;51.502;9.752;2022-11-23T02:54:06;5.60;99.90
1546;DHT22;766;51.502;9.752;2022-11-23T02:56:36;5.60;99.90
1546;DHT22;766;51.502;9.752;2022-11-23T02:59:05;5.60;99.90
1546;DHT22;766;51.502;9.752;2022-11-23T03:01:33;5.60;99.90
1546;DHT22;766;51.502;9.752;2022-11-23T03:04:02;5.70;99.90
1546;DHT22;766;51.502;9.752;2022-11-23T03:06:31;5.70;99.90
1546;DHT22;766;51.502;9.752;2022-11-23T03:09:00;5.70;99.90
1546;DHT22;766;51.502;9.752;2022-11-23T03:11:28;5.70;99.90
1546;DHT22;766;51.502;9.752;2022-11-23T03:14:00;5.70;99.90
1546;DHT22;766;51.502;9.752;2022-11-23T03:16:28;5.60;99.90
1546;DHT22;766;51.502;9.752;2022-11-23T03:18:58;5.60;99.90
1546;DHT22;766;51.502;9.752;2022-11-23T03:21:26;5.60;99.90
1546;DHT22;766;51.502;9.752;2022-11-23T03:23:55;5.60;99.90
1546;DHT22;766;51.502;9.752;2022-11-23T03:26:25;5.60;99.90
1546;DHT22;766;51.502;9.752;2022-11-23T03:28:54;5.50;99.90
1546;DHT22;766;51.502;9.752;2022-11-23T03:31:31;5.50;99.90
1546;DHT22;766;51.502;9.752;2022-11-23T03:33:59;5.50;99.90
1546;DHT22;766;51.502;9.752;2022-11-23T03:36:28;5.50;99.90
1546;DHT22;766;51.502;9.752;2022-11-23T03:38:59;5.50;99.90
1546;DHT22;766;51.502;9.752;2022-11-23T03:41:30;5.50;99.90
1546;DHT22;766;51.502;9.752;2022-11-23T03:43:58;5.50;99.90
1546;DHT22;766;51.502;9.752;2022-11-23T03:46:28;5.40;99.90
1546;DHT22;766;51.502;9.752;2022-11-23T03:48:58;5.40;99.90
1546;DHT22;766;51.502;9.752;2022-11-23T03:51:27;5.40;99.90
1546;DHT22;766;51.502;9.752;2022-11-23T03:53:59;5.40;99.90
1546;DHT22;766;51.502;9.752;2022-11-23T03:56:28;5.40;99.90
1546;DHT22;766;51.502;9.752;2022-11-23T03:58:57;5.40;99.90
1546;DHT22;766;51.502;9.752;2022-11-23T04:01:26;5.50;99.90
1546;DHT22;766;51.502;9.752;2022-11-23T04:03:55;5.50;99.90
1546;DHT22;766;51.502;9.752;2022-11-23T04:06:25;5.50;99.90
1546;DHT22;766;51.502;9.752;2022-11-23T04:08:54;5.60;99.90
1546;DHT22;766;51.502;9.752;2022-11-23T04:11:29;5.50;99.90
1546;DHT22;766;51.502;9.752;2022-11-23T04:13:57;5.60;99.90
1546;DHT22;766;51.502;9.752;2022-11-23T04:16:26;5.60;99.90
1546;DHT22;766;51.502;9.752;2022-11-23T04:18:55;5.60;99.90
1546;DHT22;766;51.502;9.752;2022-11-23T04:21:25;5.60;99.90
1546;DHT22;766;51.502;9.752;2022-11-23T04:23:55;5.50;99.90
1546;DHT22;766;51.502;9.752;2022-11-23T04:26:24;5.50;99.90
1546;DHT22;766;51.502;9.752;2022-11-23T04:28:53;5.60;99.90
1546;DHT22;766;51.502;9.752;2022-11-23T04:31:21;5.60;99.90
1546;DHT22;766;51.502;9.752;2022-11-23T04:33:50;5.60;99.90
1546;DHT22;766;51.502;9.752;2022-11-23T04:36:19;5.60;99.90
1546;DHT22;766;51.502;9.752;2022-11-23T04:38:51;5.70;99.90
1546;DHT22;766;51.502;9.752;2022-11-23T04:41:19;5.80;99.90
1546;DHT22;766;51.502;9.752;2022-11-23T04:43:49;5.80;99.90
1546;DHT22;766;51.502;9.752;2022-11-23T04:46:19;5.90;99.90
1546;DHT22;766;51.502;9.752;2022-11-23T04:48:48;5.90;99.90
1546;DHT22;766;51.502;9.752;2022-11-23T04:51:18;5.90;99.90
1546;DHT22;766;51.502;9.752;2022-11-23T04:53:47;5.90;99.90
1546;DHT22;766;51.502;9.752;2022-11-23T04:56:18;5.90;99.90
1546;DHT22;766;51.502;9.752;2022-11-23T04:58:47;6.00;99.90
1546;DHT22;766;51.502;9.752;2022-11-23T05:01:15;5.90;99.90
1546;DHT22;766;51.502;9.752;2022-11-23T05:03:43;5.90;99.90
1546;DHT22;766;51.502;9.752;2022-11-23T05:06:12;6.00;99.90
1546;DHT22;766;51.502;9.752;2022-11-23T05:08:42;6.00;99.90
1546;DHT22;766;51.502;9.752;2022-11-23T05:11:11;6.00;99.90
1546;DHT22;766;51.502;9.752;2022-11-23T05:13:41;6.00;99.90
1546;DHT22;766;51.502;9.752;2022-11-23T05:16:09;6.00;99.90
1546;DHT22;766;51.502;9.752;2022-11-23T05:18:39;6.00;99.90
1546;DHT22;766;51.502;9.752;2022-11-23T05:21:09;6.00;99.90
1546;DHT22;766;51.502;9.752;2022-11-23T05:23:38;6.10;99.90
1546;DHT22;766;51.502;9.752;2022-11-23T05:26:06;6.10;99.90
1546;DHT22;766;51.502;9.752;2022-11-23T05:28:35;6.10;99.90
1546;DHT22;766;51.502;9.752;2022-11-23T05:31:09;6.10;99.90
1546;DHT22;766;51.502;9.752;2022-11-23T05:33:39;6.10;99.90
1546;DHT22;766;51.502;9.752;2022-11-23T05:36:08;6.10;99.90
1546;DHT22;766;51.502;9.752;2022-11-23T05:38:40;6.10;99.90
1546;DHT22;766;51.502;9.752;2022-11-23T05:41:08;6.10;99.90
1546;DHT22;766;51.502;9.752;2022-11-23T05:43:37;6.10;99.90
1546;DHT22;766;51.502;9.752;2022-11-23T05:46:06;6.10;99.90
1546;DHT22;766;51.502;9.752;2022-11-23T05:48:35;6.10;99.90
1546;DHT22;766;51.502;9.752;2022-11-23T05:51:03;6.10;99.90
1546;DHT22;766;51.502;9.752;2022-11-23T05:53:32;6.20;99.90
1546;DHT22;766;51.502;9.752;2022-11-23T05:56:01;6.10;99.90
1546;DHT22;766;51.502;9.752;2022-11-23T05:58:30;6.10;99.90
1546;DHT22;766;51.502;9.752;2022-11-23T06:01:00;6.10;99.90
1546;DHT22;766;51.502;9.752;2022-11-23T06:03:28;6.00;99.90
1546;DHT22;766;51.502;9.752;2022-11-23T06:05:59;6.10;99.90
1546;DHT22;766;51.502;9.752;2022-11-23T06:08:27;6.20;99.90
1546;DHT22;766;51.502;9.752;2022-11-23T06:10:55;6.10;99.90
1546;DHT22;766;51.502;9.752;2022-11-23T06:13:24;6.10;99.90
1546;DHT22;766;51.502;9.752;2022-11-23T06:15:54;6.10;99.90
1546;DHT22;766;51.502;9.752;2022-11-23T06:18:24;6.10;99.90
1546;DHT22;766;51.502;9.752;2022-11-23T06:20:53;6.10;99.90
1546;DHT22;766;51.502;9.752;2022-11-23T06:23:24;6.10;99.90
1546;DHT22;766;51.502;9.752;2022-11-23T06:25:52;6.10;99.90
1546;DHT22;766;51.502;9.752;2022-11-23T06:28:22;6.00;99.90
1546;DHT22;766;51.502;9.752;2022-11-23T06:30:50;6.00;99.90
1546;DHT22;766;51.502;9.752;2022-11-23T06:33:20;6.00;99.90
1546;DHT22;766;51.502;9.752;2022-11-23T06:35:52;6.00;99.90
1546;DHT22;766;51.502;9.752;2022-11-23T06:38:24;6.00;99.90
1546;DHT22;766;51.502;9.752;2022-11-23T06:40:56;6.00;99.90
1546;DHT22;766;51.502;9.752;2022-11-23T06:43:25;6.00;99.90
1546;DHT22;766;51.502;9.752;2022-11-23T06:45:54;6.10;99.90
1546;DHT22;766;51.502;9.752;2022-11-23T06:48:23;6.10;99.90
1546;DHT22;766;51.502;9.752;2022-11-23T06:50:51;6.10;99.90
1546;DHT22;766;51.502;9.752;2022-11-23T06:53:20;6.20;99.90
1546;DHT22;766;51.502;9.752;2022-11-23T06:55:50;6.10;99.90
1546;DHT22;766;51.502;9.752;2022-11-23T06:58:18;6.10;99.90
1546;DHT22;766;51.502;9.752;2022-11-23T07:00:46;6.10;99.90
1546;DHT22;766;51.502;9.752;2022-11-23T07:03:18;6.10;99.90
1546;DHT22;766;51.502;9.752;2022-11-23T07:05:49;6.10;99.90
1546;DHT22;766;51.502;9.752;2022-11-23T07:08:20;6.10;99.90
1546;DHT22;766;51.502;9.752;2022-11-23T07:10:50;6.00;99.90
1546;DHT22;766;51.502;9.752;2022-11-23T07:13:20;6.00;99.90
1546;DHT22;766;51.502;9.752;2022-11-23T07:15:49;6.10;99.90
1546;DHT22;766;51.502;9.752;2022-11-23T07:18:18;6.10;99.90
1546;DHT22;766;51.502;9.752;2022-11-23T07:20:47;6.10;99.90
1546;DHT22;766;51.502;9.752;2022-11-23T07:23:16;6.00;99.90
1546;DHT22;766;51.502;9.752;2022-11-23T07:25:46;6.10;99.90
1546;DHT22;766;51.502;9.752;2022-11-23T07:28:16;6.10;99.90
1546;DHT22;766;51.502;9.752;2022-11-23T07:30:45;6.10;99.90
1546;DHT22;766;51.502;9.752;2022-11-23T07:33:13;6.10;99.90
1546;DHT22;766;51.502;9.752;2022-11-23T07:35:41;6.10;99.90
1546;DHT22;766;51.502;9.752;2022-11-23T07:38:10;6.10;99.90
1546;DHT22;766;51.502;9.752;2022-11-23T07:40:39;6.20;99.90
1546;DHT22;766;51.502;9.752;2022-11-23T07:43:11;6.30;99.90
1546;DHT22;766;51.502;9.752;2022-11-23T07:45:41;6.20;99.90
1546;DHT22;766;51.502;9.752;2022-11-23T07:48:10;6.20;99.90
1546;DHT22;766;51.502;9.752;2022-11-23T07:50:38;6.20;99.90
1546;DHT22;766;51.502;9.752;2022-11-23T07:53:07;6.20;99.90
1546;DHT22;766;51.502;9.752;2022-11-23T07:55:37;6.30;99.90
1546;DHT22;766;51.502;9.752;2022-11-23T07:58:06;6.30;99.90
1546;DHT22;766;51.502;9.752;2022-11-23T08:00:34;6.30;99.90
1546;DHT22;766;51.502;9.752;2022-11-23T08:03:04;6.30;99.90
1546;DHT22;766;51.502;9.752;2022-11-23T08:05:53;6.40;99.90
1546;DHT22;766;51.502;9.752;2022-11-23T08:08:21;6.30;99.90
1546;DHT22;766;51.502;9.752;2022-11-23T08:10:49;6.30;99.90
1546;DHT22;766;51.502;9.752;2022-11-23T08:13:21;6.30;99.90
1546;DHT22;766;51.502;9.752;2022-11-23T08:15:50;6.30;99.90
1546;DHT22;766;51.502;9.752;2022-11-23T08:18:23;6.30;99.90
1546;DHT22;766;51.502;9.752;2022-11-23T08:20:53;6.30;99.90
1546;DHT22;766;51.502;9.752;2022-11-23T08:23:21;6.40;99.90
1546;DHT22;766;51.502;9.752;2022-11-23T08:26:01;6.30;99.90
1546;DHT22;766;51.502;9.752;2022-11-23T08:28:36;6.30;99.90
1546;DHT22;766;51.502;9.752;2022-11-23T08:31:06;6.40;99.90
1546;DHT22;766;51.502;9.752;2022-11-23T08:33:37;6.40;99.90
1546;DHT22;766;51.502;9.752;2022-11-23T08:36:08;6.40;99.90
1546;DHT22;766;51.502;9.752;2022-11-23T08:38:36;6.40;99.90
1546;DHT22;766;51.502;9.752;2022-11-23T08:41:05;6.50;99.90
1546;DHT22;766;51.502;9.752;2022-11-23T08:43:33;6.40;99.90
1546;DHT22;766;51.502;9.752;2022-11-23T08:46:03;6.50;99.90
1546;DHT22;766;51.502;9.752;2022-11-23T08:48:38;6.40;99.90
1546;DHT22;766;51.502;9.752;2022-11-23T08:51:10;6.40;99.90
1546;DHT22;766;51.502;9.752;2022-11-23T08:53:38;6.50;99.90
1546;DHT22;766;51.502;9.752;2022-11-23T08:56:07;6.50;99.90
1546;DHT22;766;51.502;9.752;2022-11-23T08:58:35;6.50;99.90
1546;DHT22;766;51.502;9.752;2022-11-23T09:01:08;6.60;99.90
1546;DHT22;766;51.502;9.752;2022-11-23T09:03:40;6.50;99.90
1546;DHT22;766;51.502;9.752;2022-11-23T09:06:09;6.60;99.90
1546;DHT22;766;51.502;9.752;2022-11-23T09:08:39;6.60;99.90
1546;DHT22;766;51.502;9.752;2022-11-23T09:11:11;6.60;99.90
1546;DHT22;766;51.502;9.752;2022-11-23T09:13:44;6.60;99.90
1546;DHT22;766;51.502;9.752;2022-11-23T09:16:13;6.60;99.90
1546;DHT22;766;51.502;9.752;2022-11-23T09:18:42;6.70;99.90
1546;DHT22;766;51.502;9.752;2022-11-23T09:21:14;6.60;99.90
1546;DHT22;766;51.502;9.752;2022-11-23T09:23:42;6.70;99.90
1546;DHT22;766;51.502;9.752;2022-11-23T09:26:11;6.70;99.90
1546;DHT22;766;51.502;9.752;2022-11-23T09:28:40;6.70;99.90
1546;DHT22;766;51.502;9.752;2022-11-23T09:31:11;6.80;99.90
1546;DHT22;766;51.502;9.752;2022-11-23T09:33:39;6.90;99.90
1546;DHT22;766;51.502;9.752;2022-11-23T09:36:10;6.90;99.90
1546;DHT22;766;51.502;9.752;2022-11-23T09:38:38;6.90;99.90
1546;DHT22;766;51.502;9.752;2022-11-23T09:41:47;6.90;99.90
1546;DHT22;766;51.502;9.752;2022-11-23T09:44:33;7.00;99.90
1546;DHT22;766;51.502;9.752;2022-11-23T09:47:14;7.00;99.90
1546;DHT22;766;51.502;9.752;2022-11-23T09:49:59;7.00;99.90
1546;DHT22;766;51.502;9.752;2022-11-23T09:52:40;6.90;99.90
1546;DHT22;766;51.502;9.752;2022-11-23T09:55:16;6.90;99.90
1546;DHT22;766;51.502;9.752;2022-11-23T09:57:48;7.00;99.90
1546;DHT22;766;51.502;9.752;2022-11-23T10:00:22;7.10;99.90
1546;DHT22;766;51.502;9.752;2022-11-23T10:02:51;7.10;99.90
1546;DHT22;766;51.502;9.752;2022-11-23T10:05:22;7.10;99.90
1546;DHT22;766;51.502;9.752;2022-11-23T10:08:03;7.20;99.90
1546;DHT22;766;51.502;9.752;2022-11-23T10:10:40;7.30;99.90
1546;DHT22;766;51.502;9.752;2022-11-23T10:13:29;7.30;99.90
1546;DHT22;766;51.502;9.752;2022-11-23T10:16:14;7.30;99.90
1546;DHT22;766;51.502;9.752;2022-11-23T10:18:52;7.40;99.90
1546;DHT22;766;51.502;9.752;2022-11-23T10:21:28;7.40;99.90
1546;DHT22;766;51.502;9.752;2022-11-23T10:24:10;7.40;99.90
1546;DHT22;766;51.502;9.752;2022-11-23T10:26:42;7.40;99.90
1546;DHT22;766;51.502;9.752;2022-11-23T10:29:13;7.40;99.90
1546;DHT22;766;51.502;9.752;2022-11-23T10:31:47;7.50;99.90
1546;DHT22;766;51.502;9.752;2022-11-23T10:34:33;7.70;99.90
1546;DHT22;766;51.502;9.752;2022-11-23T10:37:09;7.80;99.90
1546;DHT22;766;51.502;9.752;2022-11-23T10:39:40;7.80;99.90
1546;DHT22;766;51.502;9.752;2022-11-23T10:42:17;8.00;99.90
1546;DHT22;766;51.502;9.752;2022-11-23T10:44:48;8.20;99.90
1546;DHT22;766;51.502;9.752;2022-11-23T10:47:38;8.20;99.90
1546;DHT22;766;51.502;9.752;2022-11-23T10:50:24;8.30;99.90
1546;DHT22;766;51.502;9.752;2022-11-23T10:52:54;8.20;99.90
1546;DHT22;766;51.502;9.752;2022-11-23T10:55:27;8.00;99.90
1546;DHT22;766;51.502;9.752;2022-11-23T10:57:57;7.90;99.90
1546;DHT22;766;51.502;9.752;2022-11-23T11:00:27;7.80;99.90
1546;DHT22;766;51.502;9.752;2022-11-23T11:02:58;7.80;99.90
1546;DHT22;766;51.502;9.752;2022-11-23T11:05:32;7.80;99.90
1546;DHT22;766;51.502;9.752;2022-11-23T11:08:25;7.80;99.90
1546;DHT22;766;51.502;9.752;2022-11-23T11:11:01;7.80;99.90
1546;DHT22;766;51.502;9.752;2022-11-23T11:13:39;7.80;99.90
1546;DHT22;766;51.502;9.752;2022-11-23T11:16:19;7.90;99.90
1546;DHT22;766;51.502;9.752;2022-11-23T11:18:48;7.90;99.90
1546;DHT22;766;51.502;9.752;2022-11-23T11:21:20;7.80;99.90
1546;DHT22;766;51.502;9.752;2022-11-23T11:23:52;8.00;99.90
1546;DHT22;766;51.502;9.752;2022-11-23T11:26:25;8.10;99.90
1546;DHT22;766;51.502;9.752;2022-11-23T11:28:56;8.10;99.90
1546;DHT22;766;51.502;9.752;2022-11-23T11:31:45;8.20;99.90
1546;DHT22;766;51.502;9.752;2022-11-23T11:34:22;8.20;99.90
1546;DHT22;766;51.502;9.752;2022-11-23T11:36:57;8.20;99.90
1546;DHT22;766;51.502;9.752;2022-11-23T11:39:31;8.10;99.90
1546;DHT22;766;51.502;9.752;2022-11-23T11:42:14;8.20;99.90
1546;DHT22;766;51.502;9.752;2022-11-23T11:44:45;8.20;99.90
1546;DHT22;766;51.502;9.752;2022-11-23T11:47:24;8.20;99.90
1546;DHT22;766;51.502;9.752;2022-11-23T11:49:58;8.20;99.90
1546;DHT22;766;51.502;9.752;2022-11-23T11:52:33;8.10;99.90
1546;DHT22;766;51.502;9.752;2022-11-23T11:55:10;8.20;99.90
1546;DHT22;766;51.502;9.752;2022-11-23T11:57:46;8.30;99.90
1546;DHT22;766;51.502;9.752;2022-11-23T12:00:18;8.40;99.90
1546;DHT22;766;51.502;9.752;2022-11-23T12:02:56;8.50;99.90
1546;DHT22;766;51.502;9.752;2022-11-23T12:05:35;8.50;99.90
1546;DHT22;766;51.502;9.752;2022-11-23T12:08:09;8.40;99.90
1546;DHT22;766;51.502;9.752;2022-11-23T12:10:45;8.20;99.90
1546;DHT22;766;51.502;9.752;2022-11-23T12:13:29;8.20;99.90
1546;DHT22;766;51.502;9.752;2022-11-23T12:16:03;8.20;99.90
1546;DHT22;766;51.502;9.752;2022-11-23T12:19:01;8.10;99.90
1546;DHT22;766;51.502;9.752;2022-11-23T12:21:49;8.10;99.90
1546;DHT22;766;51.502;9.752;2022-11-23T12:24:27;8.10;99.90
1546;DHT22;766;51.502;9.752;2022-11-23T12:27:05;8.20;99.90
1546;DHT22;766;51.502;9.752;2022-11-23T12:29:57;8.30;99.90
1546;DHT22;766;51.502;9.752;2022-11-23T12:32:36;8.50;99.90
1546;DHT22;766;51.502;9.752;2022-11-23T12:35:30;8.60;99.90
1546;DHT22;766;51.502;9.752;2022-11-23T14:04:49;8.60;99.90
1546;DHT22;766;51.502;9.752;2022-11-23T14:07:21;8.70;99.90
1546;DHT22;766;51.502;9.752;2022-11-23T14:09:56;8.70;99.90
1546;DHT22;766;51.502;9.752;2022-11-23T14:12:30;9.00;99.90
1546;DHT22;766;51.502;9.752;2022-11-23T14:15:08;9.00;99.90
1546;DHT22;766;51.502;9.752;2022-11-23T14:21:06;9.00;99.90
1546;DHT22;766;51.502;9.752;2022-11-23T14:24:16;9.10;99.90
1546;DHT22;766;51.502;9.752;2022-11-23T14:26:56;8.80;99.90
1546;DHT22;766;51.502;9.752;2022-11-23T14:30:12;8.50;99.90
1546;DHT22;766;51.502;9.752;2022-11-23T14:33:06;8.40;99.90
1546;DHT22;766;51.502;9.752;2022-11-23T14:35:44;8.30;99.90
1546;DHT22;766;51.502;9.752;2022-11-23T14:38:51;8.10;99.90
1546;DHT22;766;51.502;9.752;2022-11-23T14:41:25;8.10;99.90
1546;DHT22;766;51.502;9.752;2022-11-23T14:43:56;7.90;99.90
1546;DHT22;766;51.502;9.752;2022-11-23T14:46:27;7.80;99.90
1546;DHT22;766;51.502;9.752;2022-11-23T14:49:02;7.90;99.90
1546;DHT22;766;51.502;9.752;2022-11-23T14:51:32;7.70;99.90
1546;DHT22;766;51.502;9.752;2022-11-23T14:54:09;7.70;99.90
1546;DHT22;766;51.502;9.752;2022-11-23T14:56:41;7.60;99.90
1546;DHT22;766;51.502;9.752;2022-11-23T14:59:18;7.60;99.90
1546;DHT22;766;51.502;9.752;2022-11-23T15:01:50;7.60;99.90
1546;DHT22;766;51.502;9.752;2022-11-23T15:04:24;7.50;99.90
1546;DHT22;766;51.502;9.752;2022-11-23T15:06:58;7.50;99.90
1546;DHT22;766;51.502;9.752;2022-11-23T15:09:40;7.40;99.90
1546;DHT22;766;51.502;9.752;2022-11-23T15:12:21;7.40;99.90
1546;DHT22;766;51.502;9.752;2022-11-23T15:14:53;7.30;99.90
1546;DHT22;766;51.502;9.752;2022-11-23T15:17:26;7.10;99.90
1546;DHT22;766;51.502;9.752;2022-11-23T15:19:55;6.90;99.90
1546;DHT22;766;51.502;9.752;2022-11-23T15:22:24;6.90;99.90
1546;DHT22;766;51.502;9.752;2022-11-23T15:25:04;6.90;99.90
1546;DHT22;766;51.502;9.752;2022-11-23T15:27:38;6.70;99.90
1546;DHT22;766;51.502;9.752;2022-11-23T15:30:15;6.80;99.90
1546;DHT22;766;51.502;9.752;2022-11-23T15:32:53;6.80;99.90
1546;DHT22;766;51.502;9.752;2022-11-23T15:35:29;6.70;99.90
1546;DHT22;766;51.502;9.752;2022-11-23T15:37:59;6.50;99.90
1546;DHT22;766;51.502;9.752;2022-11-23T15:40:32;6.50;99.90
1546;DHT22;766;51.502;9.752;2022-11-23T15:43:03;6.50;99.90
1546;DHT22;766;51.502;9.752;2022-11-23T15:45:36;6.40;99.90
1546;DHT22;766;51.502;9.752;2022-11-23T15:48:11;6.40;99.90
1546;DHT22;766;51.502;9.752;2022-11-23T15:50:46;6.00;99.90
1546;DHT22;766;51.502;9.752;2022-11-23T15:53:16;6.00;99.90
1546;DHT22;766;51.502;9.752;2022-11-23T15:55:48;6.10;99.90
1546;DHT22;766;51.502;9.752;2022-11-23T15:58:18;5.80;99.90
1546;DHT22;766;51.502;9.752;2022-11-23T16:00:50;5.70;99.90
1546;DHT22;766;51.502;9.752;2022-11-23T16:03:33;5.60;99.90
1546;DHT22;766;51.502;9.752;2022-11-23T16:06:15;5.70;99.90
1546;DHT22;766;51.502;9.752;2022-11-23T16:08:44;5.80;99.90
1546;DHT22;766;51.502;9.752;2022-11-23T16:11:27;5.80;99.90
1546;DHT22;766;51.502;9.752;2022-11-23T16:14:16;5.80;99.90
1546;DHT22;766;51.502;9.752;2022-11-23T16:16:46;5.80;99.90
1546;DHT22;766;51.502;9.752;2022-11-23T16:19:24;5.80;99.90
1546;DHT22;766;51.502;9.752;2022-11-23T16:21:58;5.80;99.90
1546;DHT22;766;51.502;9.752;2022-11-23T16:24:30;5.80;99.90
1546;DHT22;766;51.502;9.752;2022-11-23T16:27:11;5.80;99.90
1546;DHT22;766;51.502;9.752;2022-11-23T16:29:40;5.60;99.90
1546;DHT22;766;51.502;9.752;2022-11-23T16:32:21;5.50;99.90
1546;DHT22;766;51.502;9.752;2022-11-23T16:34:52;5.20;99.90
1546;DHT22;766;51.502;9.752;2022-11-23T16:37:21;5.20;99.90
1546;DHT22;766;51.502;9.752;2022-11-23T16:39:51;5.40;99.90
1546;DHT22;766;51.502;9.752;2022-11-23T16:42:21;5.40;99.90
1546;DHT22;766;51.502;9.752;2022-11-23T16:44:53;5.40;99.90
1546;DHT22;766;51.502;9.752;2022-11-23T16:47:23;5.30;99.90
1546;DHT22;766;51.502;9.752;2022-11-23T16:49:52;5.30;99.90
1546;DHT22;766;51.502;9.752;2022-11-23T16:52:22;5.40;99.90
1546;DHT22;766;51.502;9.752;2022-11-23T16:54:50;5.50;99.90
1546;DHT22;766;51.502;9.752;2022-11-23T16:57:26;5.50;99.90
1546;DHT22;766;51.502;9.752;2022-11-23T16:59:56;5.50;99.90
1546;DHT22;766;51.502;9.752;2022-11-23T17:02:24;5.50;99.90
1546;DHT22;766;51.502;9.752;2022-11-23T17:04:52;5.50;99.90
1546;DHT22;766;51.502;9.752;2022-11-23T17:07:22;5.50;99.90
1546;DHT22;766;51.502;9.752;2022-11-23T17:09:50;5.40;99.90
1546;DHT22;766;51.502;9.752;2022-11-23T17:12:20;5.40;99.90
1546;DHT22;766;51.502;9.752;2022-11-23T17:14:49;5.40;99.90
1546;DHT22;766;51.502;9.752;2022-11-23T17:17:19;5.40;99.90
1546;DHT22;766;51.502;9.752;2022-11-23T17:19:49;5.40;99.90
1546;DHT22;766;51.502;9.752;2022-11-23T17:22:18;5.40;99.90
1546;DHT22;766;51.502;9.752;2022-11-23T17:24:48;5.30;99.90
1546;DHT22;766;51.502;9.752;2022-11-23T17:27:21;5.20;99.90
1546;DHT22;766;51.502;9.752;2022-11-23T17:29:56;5.20;99.90
1546;DHT22;766;51.502;9.752;2022-11-23T17:32:25;5.10;99.90
1546;DHT22;766;51.502;9.752;2022-11-23T17:34:53;5.10;99.90
1546;DHT22;766;51.502;9.752;2022-11-23T17:37:23;5.10;99.90
1546;DHT22;766;51.502;9.752;2022-11-23T17:39:51;5.10;99.90
1546;DHT22;766;51.502;9.752;2022-11-23T17:42:20;5.00;99.90
1546;DHT22;766;51.502;9.752;2022-11-23T17:44:52;5.00;99.90
1546;DHT22;766;51.502;9.752;2022-11-23T17:47:22;4.90;99.90
1546;DHT22;766;51.502;9.752;2022-11-23T17:49:52;4.90;99.90
1546;DHT22;766;51.502;9.752;2022-11-23T17:52:20;4.80;99.90
1546;DHT22;766;51.502;9.752;2022-11-23T17:54:50;4.80;99.90
1546;DHT22;766;51.502;9.752;2022-11-23T17:57:21;4.90;99.90
1546;DHT22;766;51.502;9.752;2022-11-23T17:59:51;4.80;99.90
1546;DHT22;766;51.502;9.752;2022-11-23T18:02:20;4.80;99.90
1546;DHT22;766;51.502;9.752;2022-11-23T18:04:49;4.80;99.90
1546;DHT22;766;51.502;9.752;2022-11-23T18:07:19;4.80;99.90
1546;DHT22;766;51.502;9.752;2022-11-23T18:09:48;4.80;99.90
1546;DHT22;766;51.502;9.752;2022-11-23T18:12:17;4.70;99.90
1546;DHT22;766;51.502;9.752;2022-11-23T18:14:46;4.80;99.90
1546;DHT22;766;51.502;9.752;2022-11-23T18:17:16;4.70;99.90
1546;DHT22;766;51.502;9.752;2022-11-23T18:19:48;4.70;99.90
1546;DHT22;766;51.502;9.752;2022-11-23T18:22:16;4.70;99.90
1546;DHT22;766;51.502;9.752;2022-11-23T18:24:45;4.70;99.90
1546;DHT22;766;51.502;9.752;2022-11-23T18:27:14;4.60;99.90
1546;DHT22;766;51.502;9.752;2022-11-23T18:29:43;4.60;99.90
1546;DHT22;766;51.502;9.752;2022-11-23T18:32:11;4.60;99.90
1546;DHT22;766;51.502;9.752;2022-11-23T18:34:40;4.60;99.90
1546;DHT22;766;51.502;9.752;2022-11-23T18:37:09;4.60;99.90